sensor_id;sensor_type;location;lat;lon;timestamp;temperature;humidity
2523;DHT22;1272;53.332;9.860;2023-11-19T00:02:19;5.70;99.90
2523;DHT22;1272;53.332;9.860;2023-11-19T00:04:45;5.70;99.90
2523;DHT22;1272;53.332;9.860;2023-11-19T00:07:10;5.70;99.90
2523;DHT22;1272;53.332;9.860;2023-11-19T00:09:39;5.70;99.90
2523;DHT22;1272;53.332;9.860;2023-11-19T00:12:06;5.70;99.90
2523;DHT22;1272;53.332;9.860;2023-11-19T00:14:32;5.70;99.90
2523;DHT22;1272;53.332;9.860;2023-11-19T00:16:57;5.70;99.90
2523;DHT22;1272;53.332;9.860;2023-11-19T00:19:23;5.70;99.90
2523;DHT22;1272;53.332;9.860;2023-11-19T00:21:49;5.70;99.90
2523;DHT22;1272;53.332;9.860;2023-11-19T00:24:18;5.70;99.90
2523;DHT22;1272;53.332;9.860;2023-11-19T00:26:43;5.70;99.90
2523;DHT22;1272;53.332;9.860;2023-11-19T00:29:09;5.70;99.90
2523;DHT22;1272;53.332;9.860;2023-11-19T00:31:36;5.70;99.90
2523;DHT22;1272;53.332;9.860;2023-11-19T00:34:02;5.70;99.90
2523;DHT22;1272;53.332;9.860;2023-11-19T00:36:28;5.70;99.90
2523;DHT22;1272;53.332;9.860;2023-11-19T00:38:54;5.80;99.90
2523;DHT22;1272;53.332;9.860;2023-11-19T00:41:23;5.70;99.90
2523;DHT22;1272;53.332;9.860;2023-11-19T00:43:49;5.80;99.90
2523;DHT22;1272;53.332;9.860;2023-11-19T00:46:14;5.80;99.90
2523;DHT22;1272;53.332;9.860;2023-11-19T00:48:40;5.80;99.90
2523;DHT22;1272;53.332;9.860;2023-11-19T00:51:06;5.80;99.90
2523;DHT22;1272;53.332;9.860;2023-11-19T00:53:32;5.80;99.90
2523;DHT22;1272;53.332;9.860;2023-11-19T00:55:59;5.90;99.90
2523;DHT22;1272;53.332;9.860;2023-11-19T00:58:25;5.80;99.90
2523;DHT22;1272;53.332;9.860;2023-11-19T01:00:51;5.80;99.90
2523;DHT22;1272;53.332;9.860;2023-11-19T01:03:17;5.80;99.90
2523;DHT22;1272;53.332;9.860;2023-11-19T01:05:42;5.80;99.90
2523;DHT22;1272;53.332;9.860;2023-11-19T01:08:10;5.80;99.90
2523;DHT22;1272;53.332;9.860;2023-11-19T01:10:37;5.90;99.90
2523;DHT22;1272;53.332;9.860;2023-11-19T01:13:03;5.90;99.90
2523;DHT22;1272;53.332;9.860;2023-11-19T01:15:32;5.90;99.90
2523;DHT22;1272;53.332;9.860;2023-11-19T01:17:58;6.00;99.90
2523;DHT22;1272;53.332;9.860;2023-11-19T01:20:24;6.00;99.90
2523;DHT22;1272;53.332;9.860;2023-11-19T01:22:50;6.00;99.90
2523;DHT22;1272;53.332;9.860;2023-11-19T01:25:16;6.00;99.90
2523;DHT22;1272;53.332;9.860;2023-11-19T01:27:42;5.90;99.90
2523;DHT22;1272;53.332;9.860;2023-11-19T01:30:08;5.90;99.90
2523;DHT22;1272;53.332;9.860;2023-11-19T01:32:40;5.90;99.90
2523;DHT22;1272;53.332;9.860;2023-11-19T01:35:06;5.90;99.90
2523;DHT22;1272;53.332;9.860;2023-11-19T01:37:33;5.90;99.90
2523;DHT22;1272;53.332;9.860;2023-11-19T01:40:00;5.90;99.90
2523;DHT22;1272;53.332;9.860;2023-11-19T01:42:26;5.90;99.90
2523;DHT22;1272;53.332;9.860;2023-11-19T01:44:59;5.90;99.90
2523;DHT22;1272;53.332;9.860;2023-11-19T01:47:26;6.00;99.90
2523;DHT22;1272;53.332;9.860;2023-11-19T01:49:52;6.00;99.90
2523;DHT22;1272;53.332;9.860;2023-11-19T01:52:19;6.00;99.90
2523;DHT22;1272;53.332;9.860;2023-11-19T01:54:45;6.00;99.90
2523;DHT22;1272;53.332;9.860;2023-11-19T01:57:13;6.00;99.90
2523;DHT22;1272;53.332;9.860;2023-11-19T01:59:39;6.00;99.90
2523;DHT22;1272;53.332;9.860;2023-11-19T02:02:05;6.00;99.90
2523;DHT22;1272;53.332;9.860;2023-11-19T02:04:32;6.00;99.90
2523;DHT22;1272;53.332;9.860;2023-11-19T02:06:58;6.00;99.90
2523;DHT22;1272;53.332;9.860;2023-11-19T02:09:24;6.10;99.90
2523;DHT22;1272;53.332;9.860;2023-11-19T02:11:50;6.10;99.90
2523;DHT22;1272;53.332;9.860;2023-11-19T02:14:17;6.10;99.90
2523;DHT22;1272;53.332;9.860;2023-11-19T02:16:43;6.10;99.90
2523;DHT22;1272;53.332;9.860;2023-11-19T02:19:09;6.10;99.90
2523;DHT22;1272;53.332;9.860;2023-11-19T02:21:36;6.10;99.90
2523;DHT22;1272;53.332;9.860;2023-11-19T02:24:06;6.20;99.90
2523;DHT22;1272;53.332;9.860;2023-11-19T02:26:43;6.10;99.90
2523;DHT22;1272;53.332;9.860;2023-11-19T02:29:11;6.10;99.90
2523;DHT22;1272;53.332;9.860;2023-11-19T02:31:38;6.20;99.90
2523;DHT22;1272;53.332;9.860;2023-11-19T02:34:04;6.20;99.90
2523;DHT22;1272;53.332;9.860;2023-11-19T02:36:31;6.20;99.90
2523;DHT22;1272;53.332;9.860;2023-11-19T02:38:58;6.20;99.90
2523;DHT22;1272;53.332;9.860;2023-11-19T02:41:23;6.20;99.90
2523;DHT22;1272;53.332;9.860;2023-11-19T02:43:49;6.20;99.90
2523;DHT22;1272;53.332;9.860;2023-11-19T02:46:15;6.30;99.90
2523;DHT22;1272;53.332;9.860;2023-11-19T02:48:43;6.30;99.90
2523;DHT22;1272;53.332;9.860;2023-11-19T02:51:10;6.30;99.90
2523;DHT22;1272;53.332;9.860;2023-11-19T02:53:36;6.30;99.90
2523;DHT22;1272;53.332;9.860;2023-11-19T02:56:05;6.30;99.90
2523;DHT22;1272;53.332;9.860;2023-11-19T02:58:37;6.40;99.90
2523;DHT22;1272;53.332;9.860;2023-11-19T03:01:04;6.40;99.90
2523;DHT22;1272;53.332;9.860;2023-11-19T03:03:38;6.40;99.90
2523;DHT22;1272;53.332;9.860;2023-11-19T03:06:06;6.50;99.90
2523;DHT22;1272;53.332;9.860;2023-11-19T03:08:32;6.40;99.90
2523;DHT22;1272;53.332;9.860;2023-11-19T03:10:58;6.50;99.90
2523;DHT22;1272;53.332;9.860;2023-11-19T03:13:24;6.50;99.90
2523;DHT22;1272;53.332;9.860;2023-11-19T03:15:50;6.50;99.90
2523;DHT22;1272;53.332;9.860;2023-11-19T03:18:17;6.50;99.90
2523;DHT22;1272;53.332;9.860;2023-11-19T03:20:46;6.50;99.90
2523;DHT22;1272;53.332;9.860;2023-11-19T03:23:12;6.60;99.90
2523;DHT22;1272;53.332;9.860;2023-11-19T03:25:38;6.60;99.90
2523;DHT22;1272;53.332;9.860;2023-11-19T03:28:04;6.60;99.90
2523;DHT22;1272;53.332;9.860;2023-11-19T03:30:30;6.70;99.90
2523;DHT22;1272;53.332;9.860;2023-11-19T03:32:57;6.70;99.90
2523;DHT22;1272;53.332;9.860;2023-11-19T03:35:23;6.70;99.90
2523;DHT22;1272;53.332;9.860;2023-11-19T03:37:50;6.70;99.90
2523;DHT22;1272;53.332;9.860;2023-11-19T03:40:16;6.80;99.90
2523;DHT22;1272;53.332;9.860;2023-11-19T03:42:42;6.80;99.90
2523;DHT22;1272;53.332;9.860;2023-11-19T03:45:09;6.80;99.90
2523;DHT22;1272;53.332;9.860;2023-11-19T03:47:35;6.80;99.90
2523;DHT22;1272;53.332;9.860;2023-11-19T03:50:02;6.90;99.90
2523;DHT22;1272;53.332;9.860;2023-11-19T03:52:28;6.90;99.90
2523;DHT22;1272;53.332;9.860;2023-11-19T03:54:54;6.90;99.90
2523;DHT22;1272;53.332;9.860;2023-11-19T03:57:21;7.00;99.90
2523;DHT22;1272;53.332;9.860;2023-11-19T03:59:47;7.00;99.90
2523;DHT22;1272;53.332;9.860;2023-11-19T04:02:13;7.10;99.90
2523;DHT22;1272;53.332;9.860;2023-11-19T04:04:39;7.30;99.90
2523;DHT22;1272;53.332;9.860;2023-11-19T04:07:05;7.40;99.90
2523;DHT22;1272;53.332;9.860;2023-11-19T04:09:31;7.50;99.90
2523;DHT22;1272;53.332;9.860;2023-11-19T04:11:58;7.60;99.90
2523;DHT22;1272;53.332;9.860;2023-11-19T04:14:24;7.70;99.90
2523;DHT22;1272;53.332;9.860;2023-11-19T04:16:50;7.80;99.90
2523;DHT22;1272;53.332;9.860;2023-11-19T04:19:17;7.80;99.90
2523;DHT22;1272;53.332;9.860;2023-11-19T04:21:42;7.90;99.90
2523;DHT22;1272;53.332;9.860;2023-11-19T04:24:11;8.00;99.90
2523;DHT22;1272;53.332;9.860;2023-11-19T04:26:44;8.10;99.90
2523;DHT22;1272;53.332;9.860;2023-11-19T04:29:14;8.10;99.90
2523;DHT22;1272;53.332;9.860;2023-11-19T04:31:41;8.10;99.90
2523;DHT22;1272;53.332;9.860;2023-11-19T04:34:07;8.10;99.90
2523;DHT22;1272;53.332;9.860;2023-11-19T04:36:33;8.10;99.90
2523;DHT22;1272;53.332;9.860;2023-11-19T04:39:00;8.20;99.90
2523;DHT22;1272;53.332;9.860;2023-11-19T04:41:26;8.20;99.90
2523;DHT22;1272;53.332;9.860;2023-11-19T04:43:55;8.30;99.90
2523;DHT22;1272;53.332;9.860;2023-11-19T04:46:21;8.30;99.90
2523;DHT22;1272;53.332;9.860;2023-11-19T04:48:47;8.40;99.90
2523;DHT22;1272;53.332;9.860;2023-11-19T04:51:12;8.40;99.90
2523;DHT22;1272;53.332;9.860;2023-11-19T04:53:38;8.50;99.90
2523;DHT22;1272;53.332;9.860;2023-11-19T04:56:11;8.50;99.90
2523;DHT22;1272;53.332;9.860;2023-11-19T04:58:37;8.60;99.90
2523;DHT22;1272;53.332;9.860;2023-11-19T05:01:03;8.80;99.90
2523;DHT22;1272;53.332;9.860;2023-11-19T05:03:30;8.80;99.90
2523;DHT22;1272;53.332;9.860;2023-11-19T05:05:57;8.80;99.90
2523;DHT22;1272;53.332;9.860;2023-11-19T05:08:23;8.90;99.90
2523;DHT22;1272;53.332;9.860;2023-11-19T05:10:48;8.90;99.90
2523;DHT22;1272;53.332;9.860;2023-11-19T05:13:14;9.00;99.90
2523;DHT22;1272;53.332;9.860;2023-11-19T05:15:40;9.00;99.90
2523;DHT22;1272;53.332;9.860;2023-11-19T05:18:06;9.00;99.90
2523;DHT22;1272;53.332;9.860;2023-11-19T05:20:32;9.00;99.90
2523;DHT22;1272;53.332;9.860;2023-11-19T05:22:58;9.10;99.90
2523;DHT22;1272;53.332;9.860;2023-11-19T05:25:26;9.10;99.90
2523;DHT22;1272;53.332;9.860;2023-11-19T05:27:52;9.30;99.90
2523;DHT22;1272;53.332;9.860;2023-11-19T05:30:18;9.30;99.90
2523;DHT22;1272;53.332;9.860;2023-11-19T05:32:44;9.40;99.90
2523;DHT22;1272;53.332;9.860;2023-11-19T05:35:10;9.40;99.90
2523;DHT22;1272;53.332;9.860;2023-11-19T05:37:36;9.30;99.90
2523;DHT22;1272;53.332;9.860;2023-11-19T05:40:02;9.50;99.90
2523;DHT22;1272;53.332;9.860;2023-11-19T05:42:30;9.60;99.90
2523;DHT22;1272;53.332;9.860;2023-11-19T05:44:55;9.80;99.90
2523;DHT22;1272;53.332;9.860;2023-11-19T05:47:21;9.80;99.90
2523;DHT22;1272;53.332;9.860;2023-11-19T05:49:47;9.80;99.90
2523;DHT22;1272;53.332;9.860;2023-11-19T05:52:13;9.90;99.90
2523;DHT22;1272;53.332;9.860;2023-11-19T05:54:38;10.00;99.90
2523;DHT22;1272;53.332;9.860;2023-11-19T05:57:05;10.00;99.90
2523;DHT22;1272;53.332;9.860;2023-11-19T05:59:30;10.10;99.90
2523;DHT22;1272;53.332;9.860;2023-11-19T06:01:58;10.10;99.90
2523;DHT22;1272;53.332;9.860;2023-11-19T06:04:24;10.10;99.90
2523;DHT22;1272;53.332;9.860;2023-11-19T06:06:49;10.10;99.90
2523;DHT22;1272;53.332;9.860;2023-11-19T06:09:15;10.10;99.90
2523;DHT22;1272;53.332;9.860;2023-11-19T06:11:43;10.10;99.90
2523;DHT22;1272;53.332;9.860;2023-11-19T06:14:10;10.20;99.90
2523;DHT22;1272;53.332;9.860;2023-11-19T06:16:36;10.20;99.90
2523;DHT22;1272;53.332;9.860;2023-11-19T06:19:02;10.40;99.90
2523;DHT22;1272;53.332;9.860;2023-11-19T06:21:27;10.40;99.90
2523;DHT22;1272;53.332;9.860;2023-11-19T06:23:53;10.30;99.90
2523;DHT22;1272;53.332;9.860;2023-11-19T06:26:20;10.40;99.90
2523;DHT22;1272;53.332;9.860;2023-11-19T06:28:47;10.40;99.90
2523;DHT22;1272;53.332;9.860;2023-11-19T06:31:13;10.30;99.90
2523;DHT22;1272;53.332;9.860;2023-11-19T06:33:41;10.30;99.90
2523;DHT22;1272;53.332;9.860;2023-11-19T06:36:08;10.40;99.90
2523;DHT22;1272;53.332;9.860;2023-11-19T06:38:34;10.30;99.90
2523;DHT22;1272;53.332;9.860;2023-11-19T06:41:00;10.30;99.90
2523;DHT22;1272;53.332;9.860;2023-11-19T06:43:27;10.40;99.90
2523;DHT22;1272;53.332;9.860;2023-11-19T06:45:53;10.40;99.90
2523;DHT22;1272;53.332;9.860;2023-11-19T06:48:19;10.40;99.90
2523;DHT22;1272;53.332;9.860;2023-11-19T06:50:45;10.50;99.90
2523;DHT22;1272;53.332;9.860;2023-11-19T06:53:11;10.50;99.90
2523;DHT22;1272;53.332;9.860;2023-11-19T06:55:37;10.50;99.90
2523;DHT22;1272;53.332;9.860;2023-11-19T06:58:02;10.50;99.90
2523;DHT22;1272;53.332;9.860;2023-11-19T07:00:29;10.50;99.90
2523;DHT22;1272;53.332;9.860;2023-11-19T07:02:55;10.50;99.90
2523;DHT22;1272;53.332;9.860;2023-11-19T07:05:21;10.50;99.90
2523;DHT22;1272;53.332;9.860;2023-11-19T07:07:46;10.50;99.90
2523;DHT22;1272;53.332;9.860;2023-11-19T07:10:12;10.50;99.90
2523;DHT22;1272;53.332;9.860;2023-11-19T07:12:38;10.50;99.90
2523;DHT22;1272;53.332;9.860;2023-11-19T07:15:04;10.50;99.90
2523;DHT22;1272;53.332;9.860;2023-11-19T07:17:34;10.60;99.90
2523;DHT22;1272;53.332;9.860;2023-11-19T07:20:00;10.60;99.90
2523;DHT22;1272;53.332;9.860;2023-11-19T07:22:26;10.60;99.90
2523;DHT22;1272;53.332;9.860;2023-11-19T07:24:54;10.60;99.90
2523;DHT22;1272;53.332;9.860;2023-11-19T07:27:20;10.70;99.90
2523;DHT22;1272;53.332;9.860;2023-11-19T07:29:46;10.70;99.90
2523;DHT22;1272;53.332;9.860;2023-11-19T07:32:11;10.70;99.90
2523;DHT22;1272;53.332;9.860;2023-11-19T07:34:38;10.60;99.90
2523;DHT22;1272;53.332;9.860;2023-11-19T07:37:05;10.70;99.90
2523;DHT22;1272;53.332;9.860;2023-11-19T07:39:31;10.70;99.90
2523;DHT22;1272;53.332;9.860;2023-11-19T07:41:56;10.70;99.90
2523;DHT22;1272;53.332;9.860;2023-11-19T07:44:22;10.70;99.90
2523;DHT22;1272;53.332;9.860;2023-11-19T07:46:48;10.80;99.90
2523;DHT22;1272;53.332;9.860;2023-11-19T07:49:14;10.80;99.90
2523;DHT22;1272;53.332;9.860;2023-11-19T07:51:40;10.80;99.90
2523;DHT22;1272;53.332;9.860;2023-11-19T07:54:06;10.80;99.90
2523;DHT22;1272;53.332;9.860;2023-11-19T07:56:34;10.90;99.90
2523;DHT22;1272;53.332;9.860;2023-11-19T07:59:01;10.90;99.90
2523;DHT22;1272;53.332;9.860;2023-11-19T08:01:27;11.00;99.90
2523;DHT22;1272;53.332;9.860;2023-11-19T08:03:53;11.00;99.90
2523;DHT22;1272;53.332;9.860;2023-11-19T08:06:19;11.00;99.90
2523;DHT22;1272;53.332;9.860;2023-11-19T08:08:45;11.00;99.90
2523;DHT22;1272;53.332;9.860;2023-11-19T08:11:11;11.00;99.90
2523;DHT22;1272;53.332;9.860;2023-11-19T08:13:36;11.20;99.90
2523;DHT22;1272;53.332;9.860;2023-11-19T08:16:02;11.20;99.90
2523;DHT22;1272;53.332;9.860;2023-11-19T08:18:28;11.10;99.90
2523;DHT22;1272;53.332;9.860;2023-11-19T08:20:53;11.10;99.90
2523;DHT22;1272;53.332;9.860;2023-11-19T08:23:22;11.20;99.90
2523;DHT22;1272;53.332;9.860;2023-11-19T08:25:49;11.10;99.90
2523;DHT22;1272;53.332;9.860;2023-11-19T08:28:15;11.10;99.90
2523;DHT22;1272;53.332;9.860;2023-11-19T08:30:41;11.10;99.90
2523;DHT22;1272;53.332;9.860;2023-11-19T08:33:06;11.10;99.90
2523;DHT22;1272;53.332;9.860;2023-11-19T08:35:32;11.20;99.90
2523;DHT22;1272;53.332;9.860;2023-11-19T08:37:58;11.10;99.90
2523;DHT22;1272;53.332;9.860;2023-11-19T08:40:24;11.10;99.90
2523;DHT22;1272;53.332;9.860;2023-11-19T08:42:53;11.10;99.90
2523;DHT22;1272;53.332;9.860;2023-11-19T08:45:19;11.10;99.90
2523;DHT22;1272;53.332;9.860;2023-11-19T08:47:44;11.00;99.90
2523;DHT22;1272;53.332;9.860;2023-11-19T08:50:11;11.10;99.90
2523;DHT22;1272;53.332;9.860;2023-11-19T08:52:37;11.10;99.90
2523;DHT22;1272;53.332;9.860;2023-11-19T08:55:03;11.10;99.90
2523;DHT22;1272;53.332;9.860;2023-11-19T08:57:31;11.10;99.90
2523;DHT22;1272;53.332;9.860;2023-11-19T08:59:58;11.20;99.90
2523;DHT22;1272;53.332;9.860;2023-11-19T09:02:23;11.20;99.90
2523;DHT22;1272;53.332;9.860;2023-11-19T09:04:49;11.20;99.90
2523;DHT22;1272;53.332;9.860;2023-11-19T09:07:15;11.20;99.90
2523;DHT22;1272;53.332;9.860;2023-11-19T09:09:41;11.20;99.90
2523;DHT22;1272;53.332;9.860;2023-11-19T09:12:06;11.30;99.90
2523;DHT22;1272;53.332;9.860;2023-11-19T09:14:32;11.30;99.90
2523;DHT22;1272;53.332;9.860;2023-11-19T09:16:58;11.30;99.90
2523;DHT22;1272;53.332;9.860;2023-11-19T09:19:25;11.30;99.90
2523;DHT22;1272;53.332;9.860;2023-11-19T09:21:52;11.40;99.90
2523;DHT22;1272;53.332;9.860;2023-11-19T09:24:18;11.40;99.90
2523;DHT22;1272;53.332;9.860;2023-11-19T09:26:44;11.30;99.90
2523;DHT22;1272;53.332;9.860;2023-11-19T09:29:10;11.30;99.90
2523;DHT22;1272;53.332;9.860;2023-11-19T09:31:37;11.30;99.90
2523;DHT22;1272;53.332;9.860;2023-11-19T09:34:03;11.30;99.90
2523;DHT22;1272;53.332;9.860;2023-11-19T09:36:29;11.40;99.90
2523;DHT22;1272;53.332;9.860;2023-11-19T09:38:55;11.40;99.90
2523;DHT22;1272;53.332;9.860;2023-11-19T09:41:24;11.50;99.90
2523;DHT22;1272;53.332;9.860;2023-11-19T09:43:51;11.50;99.90
2523;DHT22;1272;53.332;9.860;2023-11-19T09:46:17;11.60;99.90
2523;DHT22;1272;53.332;9.860;2023-11-19T09:48:42;11.60;99.90
2523;DHT22;1272;53.332;9.860;2023-11-19T09:51:11;11.70;99.90
2523;DHT22;1272;53.332;9.860;2023-11-19T09:53:38;11.70;99.90
2523;DHT22;1272;53.332;9.860;2023-11-19T09:56:06;11.80;99.90
2523;DHT22;1272;53.332;9.860;2023-11-19T09:58:33;11.80;99.90
2523;DHT22;1272;53.332;9.860;2023-11-19T10:01:00;11.80;99.90
2523;DHT22;1272;53.332;9.860;2023-11-19T10:03:33;11.90;99.90
2523;DHT22;1272;53.332;9.860;2023-11-19T10:06:10;11.90;99.90
2523;DHT22;1272;53.332;9.860;2023-11-19T10:08:39;11.90;99.90
2523;DHT22;1272;53.332;9.860;2023-11-19T10:11:09;12.00;99.90
2523;DHT22;1272;53.332;9.860;2023-11-19T10:13:37;11.90;99.90
2523;DHT22;1272;53.332;9.860;2023-11-19T10:16:10;12.00;99.90
2523;DHT22;1272;53.332;9.860;2023-11-19T10:18:37;12.00;99.90
2523;DHT22;1272;53.332;9.860;2023-11-19T10:21:07;12.00;99.90
2523;DHT22;1272;53.332;9.860;2023-11-19T10:26:14;12.00;99.90
2523;DHT22;1272;53.332;9.860;2023-11-19T10:28:40;12.00;99.90
2523;DHT22;1272;53.332;9.860;2023-11-19T10:31:09;11.90;99.90
2523;DHT22;1272;53.332;9.860;2023-11-19T10:33:35;11.90;99.90
2523;DHT22;1272;53.332;9.860;2023-11-19T10:36:01;11.90;99.90
2523;DHT22;1272;53.332;9.860;2023-11-19T10:38:27;11.90;99.90
2523;DHT22;1272;53.332;9.860;2023-11-19T10:40:53;11.90;99.90
2523;DHT22;1272;53.332;9.860;2023-11-19T10:43:20;11.90;99.90
2523;DHT22;1272;53.332;9.860;2023-11-19T10:45:49;12.00;99.90
2523;DHT22;1272;53.332;9.860;2023-11-19T10:48:18;12.00;99.90
2523;DHT22;1272;53.332;9.860;2023-11-19T10:50:45;12.00;99.90
2523;DHT22;1272;53.332;9.860;2023-11-19T10:53:12;12.00;99.90
2523;DHT22;1272;53.332;9.860;2023-11-19T10:55:47;12.00;99.90
2523;DHT22;1272;53.332;9.860;2023-11-19T10:58:15;12.10;99.90
2523;DHT22;1272;53.332;9.860;2023-11-19T11:00:54;12.10;99.90
2523;DHT22;1272;53.332;9.860;2023-11-19T11:03:23;12.10;99.90
2523;DHT22;1272;53.332;9.860;2023-11-19T11:05:51;12.10;99.90
2523;DHT22;1272;53.332;9.860;2023-11-19T11:08:19;12.00;99.90
2523;DHT22;1272;53.332;9.860;2023-11-19T11:10:52;11.90;99.90
2523;DHT22;1272;53.332;9.860;2023-11-19T11:13:18;11.80;99.90
2523;DHT22;1272;53.332;9.860;2023-11-19T11:15:45;11.80;99.90
2523;DHT22;1272;53.332;9.860;2023-11-19T11:18:13;11.80;99.90
2523;DHT22;1272;53.332;9.860;2023-11-19T11:20:39;11.80;99.90
2523;DHT22;1272;53.332;9.860;2023-11-19T11:36:31;12.10;99.90
2523;DHT22;1272;53.332;9.860;2023-11-19T11:39:01;12.10;99.90
2523;DHT22;1272;53.332;9.860;2023-11-19T11:41:29;12.10;99.90
2523;DHT22;1272;53.332;9.860;2023-11-19T11:43:56;12.00;99.90
2523;DHT22;1272;53.332;9.860;2023-11-19T11:49:03;11.90;99.90
2523;DHT22;1272;53.332;9.860;2023-11-19T11:57:07;11.80;99.90
2523;DHT22;1272;53.332;9.860;2023-11-19T11:59:43;11.80;99.90
2523;DHT22;1272;53.332;9.860;2023-11-19T12:02:13;11.80;99.90
2523;DHT22;1272;53.332;9.860;2023-11-19T12:04:43;11.80;99.90
2523;DHT22;1272;53.332;9.860;2023-11-19T12:07:13;11.80;99.90
2523;DHT22;1272;53.332;9.860;2023-11-19T12:09:47;11.80;99.90
2523;DHT22;1272;53.332;9.860;2023-11-19T12:12:21;11.70;99.90
2523;DHT22;1272;53.332;9.860;2023-11-19T12:17:38;11.70;99.90
2523;DHT22;1272;53.332;9.860;2023-11-19T12:20:07;11.80;99.90
2523;DHT22;1272;53.332;9.860;2023-11-19T12:22:41;11.80;99.90
2523;DHT22;1272;53.332;9.860;2023-11-19T12:25:09;11.80;99.90
2523;DHT22;1272;53.332;9.860;2023-11-19T12:27:35;11.70;99.90
2523;DHT22;1272;53.332;9.860;2023-11-19T12:30:02;11.70;99.90
2523;DHT22;1272;53.332;9.860;2023-11-19T12:32:41;11.70;99.90
2523;DHT22;1272;53.332;9.860;2023-11-19T12:35:08;11.70;99.90
2523;DHT22;1272;53.332;9.860;2023-11-19T12:37:43;11.70;99.90
2523;DHT22;1272;53.332;9.860;2023-11-19T12:42:38;11.60;99.90
2523;DHT22;1272;53.332;9.860;2023-11-19T12:45:05;11.70;99.90
2523;DHT22;1272;53.332;9.860;2023-11-19T12:47:31;11.70;99.90
2523;DHT22;1272;53.332;9.860;2023-11-19T12:49:57;11.70;99.90
2523;DHT22;1272;53.332;9.860;2023-11-19T12:52:23;11.70;99.90
2523;DHT22;1272;53.332;9.860;2023-11-19T12:54:49;11.80;99.90
2523;DHT22;1272;53.332;9.860;2023-11-19T12:57:15;11.70;99.90
2523;DHT22;1272;53.332;9.860;2023-11-19T12:59:41;11.80;99.90
2523;DHT22;1272;53.332;9.860;2023-11-19T13:02:11;11.80;99.90
2523;DHT22;1272;53.332;9.860;2023-11-19T13:04:37;11.80;99.90
2523;DHT22;1272;53.332;9.860;2023-11-19T13:07:03;11.80;99.90
2523;DHT22;1272;53.332;9.860;2023-11-19T13:09:29;11.80;99.90
2523;DHT22;1272;53.332;9.860;2023-11-19T13:11:56;11.80;99.90
2523;DHT22;1272;53.332;9.860;2023-11-19T13:14:22;11.80;99.90
2523;DHT22;1272;53.332;9.860;2023-11-19T13:16:49;11.80;99.90
2523;DHT22;1272;53.332;9.860;2023-11-19T13:19:15;11.70;99.90
2523;DHT22;1272;53.332;9.860;2023-11-19T13:21:45;11.70;99.90
2523;DHT22;1272;53.332;9.860;2023-11-19T13:24:14;11.60;99.90
2523;DHT22;1272;53.332;9.860;2023-11-19T13:26:40;11.60;99.90
2523;DHT22;1272;53.332;9.860;2023-11-19T13:29:05;11.60;99.90
2523;DHT22;1272;53.332;9.860;2023-11-19T13:31:31;11.60;99.90
2523;DHT22;1272;53.332;9.860;2023-11-19T13:33:57;11.60;99.90
2523;DHT22;1272;53.332;9.860;2023-11-19T13:36:24;11.60;99.90
2523;DHT22;1272;53.332;9.860;2023-11-19T13:38:50;11.60;99.90
2523;DHT22;1272;53.332;9.860;2023-11-19T13:41:16;11.60;99.90
2523;DHT22;1272;53.332;9.860;2023-11-19T13:43:42;11.60;99.90
2523;DHT22;1272;53.332;9.860;2023-11-19T13:46:09;11.60;99.90
2523;DHT22;1272;53.332;9.860;2023-11-19T13:48:37;11.60;99.90
2523;DHT22;1272;53.332;9.860;2023-11-19T13:51:03;11.60;99.90
2523;DHT22;1272;53.332;9.860;2023-11-19T13:53:29;11.60;99.90
2523;DHT22;1272;53.332;9.860;2023-11-19T13:55:55;11.60;99.90
2523;DHT22;1272;53.332;9.860;2023-11-19T13:58:21;11.60;99.90
2523;DHT22;1272;53.332;9.860;2023-11-19T14:00:46;11.70;99.90
2523;DHT22;1272;53.332;9.860;2023-11-19T14:03:12;11.60;99.90
2523;DHT22;1272;53.332;9.860;2023-11-19T14:05:38;11.60;99.90
2523;DHT22;1272;53.332;9.860;2023-11-19T14:08:06;11.60;99.90
2523;DHT22;1272;53.332;9.860;2023-11-19T14:10:39;11.60;99.90
2523;DHT22;1272;53.332;9.860;2023-11-19T14:13:08;11.60;99.90
2523;DHT22;1272;53.332;9.860;2023-11-19T14:15:34;11.60;99.90
2523;DHT22;1272;53.332;9.860;2023-11-19T14:18:01;11.50;99.90
2523;DHT22;1272;53.332;9.860;2023-11-19T14:20:27;11.50;99.90
2523;DHT22;1272;53.332;9.860;2023-11-19T14:22:52;11.50;99.90
2523;DHT22;1272;53.332;9.860;2023-11-19T14:25:18;11.50;99.90
2523;DHT22;1272;53.332;9.860;2023-11-19T14:27:45;11.50;99.90
2523;DHT22;1272;53.332;9.860;2023-11-19T14:30:14;11.50;99.90
2523;DHT22;1272;53.332;9.860;2023-11-19T14:32:41;11.60;99.90
2523;DHT22;1272;53.332;9.860;2023-11-19T14:35:11;11.60;99.90
2523;DHT22;1272;53.332;9.860;2023-11-19T14:37:37;11.60;99.90
2523;DHT22;1272;53.332;9.860;2023-11-19T14:40:03;11.60;99.90
2523;DHT22;1272;53.332;9.860;2023-11-19T14:42:32;11.60;99.90
2523;DHT22;1272;53.332;9.860;2023-11-19T14:44:58;11.60;99.90
2523;DHT22;1272;53.332;9.860;2023-11-19T14:47:27;11.50;99.90
2523;DHT22;1272;53.332;9.860;2023-11-19T14:49:52;11.50;99.90
2523;DHT22;1272;53.332;9.860;2023-11-19T14:52:18;11.50;99.90
2523;DHT22;1272;53.332;9.860;2023-11-19T14:54:44;11.50;99.90
2523;DHT22;1272;53.332;9.860;2023-11-19T14:57:09;11.50;99.90
2523;DHT22;1272;53.332;9.860;2023-11-19T14:59:36;11.50;99.90
2523;DHT22;1272;53.332;9.860;2023-11-19T15:02:02;11.40;99.90
2523;DHT22;1272;53.332;9.860;2023-11-19T15:04:28;11.40;99.90
2523;DHT22;1272;53.332;9.860;2023-11-19T15:06:56;11.30;99.90
2523;DHT22;1272;53.332;9.860;2023-11-19T15:09:22;11.30;99.90
2523;DHT22;1272;53.332;9.860;2023-11-19T15:11:48;11.30;99.90
2523;DHT22;1272;53.332;9.860;2023-11-19T15:14:14;11.30;99.90
2523;DHT22;1272;53.332;9.860;2023-11-19T15:16:42;11.30;99.90
2523;DHT22;1272;53.332;9.860;2023-11-19T15:19:08;11.20;99.90
2523;DHT22;1272;53.332;9.860;2023-11-19T15:21:34;11.20;99.90
2523;DHT22;1272;53.332;9.860;2023-11-19T15:24:00;11.20;99.90
2523;DHT22;1272;53.332;9.860;2023-11-19T15:26:29;11.20;99.90
2523;DHT22;1272;53.332;9.860;2023-11-19T15:28:54;11.20;99.90
2523;DHT22;1272;53.332;9.860;2023-11-19T15:31:24;11.20;99.90
2523;DHT22;1272;53.332;9.860;2023-11-19T15:33:49;11.20;99.90
2523;DHT22;1272;53.332;9.860;2023-11-19T15:36:16;11.10;99.90
2523;DHT22;1272;53.332;9.860;2023-11-19T15:38:43;11.10;99.90
2523;DHT22;1272;53.332;9.860;2023-11-19T15:41:09;11.00;99.90
2523;DHT22;1272;53.332;9.860;2023-11-19T15:43:34;11.00;99.90
2523;DHT22;1272;53.332;9.860;2023-11-19T15:46:00;11.00;99.90
2523;DHT22;1272;53.332;9.860;2023-11-19T15:48:26;11.00;99.90
2523;DHT22;1272;53.332;9.860;2023-11-19T15:50:52;11.00;99.90
2523;DHT22;1272;53.332;9.860;2023-11-19T15:53:18;10.90;99.90
2523;DHT22;1272;53.332;9.860;2023-11-19T15:55:44;10.90;99.90
2523;DHT22;1272;53.332;9.860;2023-11-19T15:58:11;10.90;99.90
2523;DHT22;1272;53.332;9.860;2023-11-19T16:00:36;10.80;99.90
2523;DHT22;1272;53.332;9.860;2023-11-19T16:03:02;10.90;99.90
2523;DHT22;1272;53.332;9.860;2023-11-19T16:05:28;10.90;99.90
2523;DHT22;1272;53.332;9.860;2023-11-19T16:07:54;10.80;99.90
2523;DHT22;1272;53.332;9.860;2023-11-19T16:10:19;10.80;99.90
2523;DHT22;1272;53.332;9.860;2023-11-19T16:12:46;10.80;99.90
2523;DHT22;1272;53.332;9.860;2023-11-19T16:15:12;10.70;99.90
2523;DHT22;1272;53.332;9.860;2023-11-19T16:17:43;10.70;99.90
2523;DHT22;1272;53.332;9.860;2023-11-19T16:20:10;10.60;99.90
2523;DHT22;1272;53.332;9.860;2023-11-19T16:22:37;10.60;99.90
2523;DHT22;1272;53.332;9.860;2023-11-19T16:25:03;10.60;99.90
2523;DHT22;1272;53.332;9.860;2023-11-19T16:27:29;10.60;99.90
2523;DHT22;1272;53.332;9.860;2023-11-19T16:29:55;10.60;99.90
2523;DHT22;1272;53.332;9.860;2023-11-19T16:32:21;10.60;99.90
2523;DHT22;1272;53.332;9.860;2023-11-19T16:34:47;10.60;99.90